Rockland, WI (54653)

4:43 PM CST on February 07, 2016 (GMT -0600)
Hickory Hill | | Change Station
CLOSE
Current Station
Personal Weather Station
Location: Burns, WI
Elevation: 850 ft
Nearby Weather Stations

Elev 850 ft 43.91 °N, 90.97 °W | Updated 9 seconds ago

Overcast
Overcast
37.8 °F
Feels Like 34 °F
N
5.4
Wind Variable Wind from NW
Gusts 5.4 mph

Today
High -- | Low -- °F
--% Chance of Precip.
Yesterday
High -- | Low -- °F
Precip. -- in
Pressure 29.65 in
Visibility 10.0 miles
Clouds Overcast 4300 ft
Windchill 34 °F
Dew Point 26 °F
Humidity 62%
Rainfall 0.00 in
Snow Depth Not available.
7:14 AM 5:21 PM
Waning Crescent, 1% visible
METAR KCMY 072235Z AUTO 25007G16KT 10SM OVC043 04/M03 A2965 RMK AO2 T00351029
Pressure 29.65 in
Visibility 10.0 miles
Clouds Overcast 4300 ft
Windchill 34 °F
Dew Point 26 °F
Humidity 62%
Rainfall 0.00 in
Snow Depth Not available.
7:14 AM 5:21 PM
Waning Crescent, 1% visible
METAR KCMY 072235Z AUTO 25007G16KT 10SM OVC043 04/M03 A2965 RMK AO2 T00351029

10-Day Weather Forecast

Almanac

Astronomy

Feb. 07, 2016 Rise Set
Actual Time
Civil Twilight
Nautical Twilight
Astronomical Twilight
Moon
Length of Visible Light
Length of Day
Tomorrow will be .
, % of the Moon is Illuminated

Today's Extremes

State Highs State Lows

Community

WunderPhotos

Upload Photos

1,891,323 photos uploaded!

WunderBlog® & News

Nearby

Air Quality

  Air Quality AQ Index Pollutant
Not available.

Snow Depth

Station Depth Elevation

Earthquake Activity

City Distance Mag. Time & Date
Minimum magnitude displayed is 2.5.

Coastal Water Temperatures

Place Temperature

Stations

Nearby Weather Stations

Station Location Temp. Windchill Dew Point Humidity Wind Precip. Elev Updated Type
                   

Watches & Warnings

There are currently no watches in effect.